sensor_id;sensor_type;location;lat;lon;timestamp;temperature;humidity
31542;DHT22;18152;49.986;8.646;2023-08-24T00:02:06;17.30;99.90
31542;DHT22;18152;49.986;8.646;2023-08-24T00:04:32;17.30;99.90
31542;DHT22;18152;49.986;8.646;2023-08-24T00:06:57;17.30;99.90
31542;DHT22;18152;49.986;8.646;2023-08-24T00:09:23;17.20;99.90
31542;DHT22;18152;49.986;8.646;2023-08-24T00:11:48;17.20;99.90
31542;DHT22;18152;49.986;8.646;2023-08-24T00:14:14;17.20;99.90
31542;DHT22;18152;49.986;8.646;2023-08-24T00:16:40;17.10;99.90
31542;DHT22;18152;49.986;8.646;2023-08-24T00:19:06;17.10;99.90
31542;DHT22;18152;49.986;8.646;2023-08-24T00:21:32;17.00;99.90
31542;DHT22;18152;49.986;8.646;2023-08-24T00:23:58;17.00;99.90
31542;DHT22;18152;49.986;8.646;2023-08-24T00:26:25;17.00;99.90
31542;DHT22;18152;49.986;8.646;2023-08-24T00:28:50;16.90;99.90
31542;DHT22;18152;49.986;8.646;2023-08-24T00:31:17;16.90;99.90
31542;DHT22;18152;49.986;8.646;2023-08-24T00:33:42;16.90;99.90
31542;DHT22;18152;49.986;8.646;2023-08-24T00:36:08;16.90;99.90
31542;DHT22;18152;49.986;8.646;2023-08-24T00:38:34;16.90;99.90
31542;DHT22;18152;49.986;8.646;2023-08-24T00:40:59;16.90;99.90
31542;DHT22;18152;49.986;8.646;2023-08-24T00:43:26;16.90;99.90
31542;DHT22;18152;49.986;8.646;2023-08-24T00:45:53;16.90;99.90
31542;DHT22;18152;49.986;8.646;2023-08-24T00:48:21;16.90;99.90
31542;DHT22;18152;49.986;8.646;2023-08-24T00:50:52;17.00;99.90
31542;DHT22;18152;49.986;8.646;2023-08-24T00:53:18;16.90;99.90
31542;DHT22;18152;49.986;8.646;2023-08-24T00:55:44;17.00;99.90
31542;DHT22;18152;49.986;8.646;2023-08-24T00:58:10;16.90;99.90
31542;DHT22;18152;49.986;8.646;2023-08-24T01:00:36;16.90;99.90
31542;DHT22;18152;49.986;8.646;2023-08-24T01:03:03;16.90;99.90
31542;DHT22;18152;49.986;8.646;2023-08-24T01:05:28;16.90;99.90
31542;DHT22;18152;49.986;8.646;2023-08-24T01:07:54;16.90;99.90
31542;DHT22;18152;49.986;8.646;2023-08-24T01:10:20;16.90;99.90
31542;DHT22;18152;49.986;8.646;2023-08-24T01:13:09;16.90;99.90
31542;DHT22;18152;49.986;8.646;2023-08-24T01:15:51;16.90;99.90
31542;DHT22;18152;49.986;8.646;2023-08-24T01:18:22;16.90;99.90
31542;DHT22;18152;49.986;8.646;2023-08-24T01:20:49;16.90;99.90
31542;DHT22;18152;49.986;8.646;2023-08-24T01:23:32;16.90;99.90
31542;DHT22;18152;49.986;8.646;2023-08-24T01:28:30;16.90;99.90
31542;DHT22;18152;49.986;8.646;2023-08-24T01:30:56;16.90;99.90
31542;DHT22;18152;49.986;8.646;2023-08-24T01:33:22;16.90;99.90
31542;DHT22;18152;49.986;8.646;2023-08-24T01:35:48;17.00;99.90
31542;DHT22;18152;49.986;8.646;2023-08-24T01:38:14;17.00;99.90
31542;DHT22;18152;49.986;8.646;2023-08-24T01:41:09;17.00;99.90
31542;DHT22;18152;49.986;8.646;2023-08-24T01:43:36;17.00;99.90
31542;DHT22;18152;49.986;8.646;2023-08-24T01:46:06;17.10;99.90
31542;DHT22;18152;49.986;8.646;2023-08-24T01:48:32;17.10;99.90
31542;DHT22;18152;49.986;8.646;2023-08-24T01:51:00;17.20;99.90
31542;DHT22;18152;49.986;8.646;2023-08-24T01:53:29;17.10;99.90
31542;DHT22;18152;49.986;8.646;2023-08-24T01:55:55;17.20;99.90
31542;DHT22;18152;49.986;8.646;2023-08-24T01:58:20;17.10;99.90
31542;DHT22;18152;49.986;8.646;2023-08-24T02:00:46;17.20;99.90
31542;DHT22;18152;49.986;8.646;2023-08-24T02:03:12;17.20;99.90
31542;DHT22;18152;49.986;8.646;2023-08-24T02:05:37;17.10;99.90
31542;DHT22;18152;49.986;8.646;2023-08-24T02:08:03;17.20;99.90
31542;DHT22;18152;49.986;8.646;2023-08-24T02:10:29;17.20;99.90
31542;DHT22;18152;49.986;8.646;2023-08-24T02:12:55;17.20;99.90
31542;DHT22;18152;49.986;8.646;2023-08-24T02:15:21;17.20;99.90
31542;DHT22;18152;49.986;8.646;2023-08-24T02:17:47;17.30;99.90
31542;DHT22;18152;49.986;8.646;2023-08-24T02:20:12;17.30;99.90
31542;DHT22;18152;49.986;8.646;2023-08-24T02:22:38;17.30;99.90
31542;DHT22;18152;49.986;8.646;2023-08-24T02:25:05;17.40;99.90
31542;DHT22;18152;49.986;8.646;2023-08-24T02:27:34;17.40;99.90
31542;DHT22;18152;49.986;8.646;2023-08-24T02:29:59;17.40;99.90
31542;DHT22;18152;49.986;8.646;2023-08-24T02:32:25;17.40;99.90
31542;DHT22;18152;49.986;8.646;2023-08-24T02:34:51;17.50;99.90
31542;DHT22;18152;49.986;8.646;2023-08-24T02:37:17;17.60;99.90
31542;DHT22;18152;49.986;8.646;2023-08-24T02:39:42;17.60;99.90
31542;DHT22;18152;49.986;8.646;2023-08-24T02:42:08;17.60;99.90
31542;DHT22;18152;49.986;8.646;2023-08-24T02:44:34;17.70;99.90
31542;DHT22;18152;49.986;8.646;2023-08-24T02:46:59;17.80;99.90
31542;DHT22;18152;49.986;8.646;2023-08-24T02:49:25;17.80;99.90
31542;DHT22;18152;49.986;8.646;2023-08-24T02:51:51;17.80;99.90
31542;DHT22;18152;49.986;8.646;2023-08-24T02:54:16;17.80;99.90
31542;DHT22;18152;49.986;8.646;2023-08-24T02:56:42;17.90;99.90
31542;DHT22;18152;49.986;8.646;2023-08-24T02:59:07;17.90;99.90
31542;DHT22;18152;49.986;8.646;2023-08-24T03:01:33;17.90;99.90
31542;DHT22;18152;49.986;8.646;2023-08-24T03:03:58;17.90;99.90
31542;DHT22;18152;49.986;8.646;2023-08-24T03:06:24;17.90;99.90
31542;DHT22;18152;49.986;8.646;2023-08-24T03:08:50;17.90;99.90
31542;DHT22;18152;49.986;8.646;2023-08-24T03:11:15;17.90;99.90
31542;DHT22;18152;49.986;8.646;2023-08-24T03:13:41;17.90;99.90
31542;DHT22;18152;49.986;8.646;2023-08-24T03:16:07;17.90;99.90
31542;DHT22;18152;49.986;8.646;2023-08-24T03:18:33;17.90;99.90
31542;DHT22;18152;49.986;8.646;2023-08-24T03:20:59;17.90;99.90
31542;DHT22;18152;49.986;8.646;2023-08-24T03:23:26;17.90;99.90
31542;DHT22;18152;49.986;8.646;2023-08-24T03:25:52;18.00;99.90
31542;DHT22;18152;49.986;8.646;2023-08-24T03:28:17;18.00;99.90
31542;DHT22;18152;49.986;8.646;2023-08-24T03:30:48;18.00;99.90
31542;DHT22;18152;49.986;8.646;2023-08-24T03:33:13;18.00;99.90
31542;DHT22;18152;49.986;8.646;2023-08-24T03:35:40;18.00;99.90
31542;DHT22;18152;49.986;8.646;2023-08-24T03:38:05;18.10;99.90
31542;DHT22;18152;49.986;8.646;2023-08-24T03:40:31;18.00;99.90
31542;DHT22;18152;49.986;8.646;2023-08-24T03:42:57;18.00;99.90
31542;DHT22;18152;49.986;8.646;2023-08-24T03:45:23;18.00;99.90
31542;DHT22;18152;49.986;8.646;2023-08-24T03:47:49;18.00;99.90
31542;DHT22;18152;49.986;8.646;2023-08-24T03:50:15;18.00;99.90
31542;DHT22;18152;49.986;8.646;2023-08-24T03:52:41;18.10;99.90
31542;DHT22;18152;49.986;8.646;2023-08-24T03:55:07;18.10;99.90
31542;DHT22;18152;49.986;8.646;2023-08-24T03:57:32;18.20;99.90
31542;DHT22;18152;49.986;8.646;2023-08-24T03:59:58;18.30;99.90
31542;DHT22;18152;49.986;8.646;2023-08-24T04:02:24;18.40;99.90
31542;DHT22;18152;49.986;8.646;2023-08-24T04:04:52;18.30;99.90
31542;DHT22;18152;49.986;8.646;2023-08-24T04:07:18;18.30;99.90
31542;DHT22;18152;49.986;8.646;2023-08-24T04:09:44;18.20;99.90
31542;DHT22;18152;49.986;8.646;2023-08-24T04:12:11;18.10;99.90
31542;DHT22;18152;49.986;8.646;2023-08-24T04:14:36;18.10;99.90
31542;DHT22;18152;49.986;8.646;2023-08-24T04:17:02;18.00;99.90
31542;DHT22;18152;49.986;8.646;2023-08-24T04:19:27;18.00;99.90
31542;DHT22;18152;49.986;8.646;2023-08-24T04:21:53;18.00;99.90
31542;DHT22;18152;49.986;8.646;2023-08-24T04:24:19;18.00;99.90
31542;DHT22;18152;49.986;8.646;2023-08-24T04:26:44;18.00;99.90
31542;DHT22;18152;49.986;8.646;2023-08-24T04:29:10;18.00;99.90
31542;DHT22;18152;49.986;8.646;2023-08-24T04:31:35;18.10;99.90
31542;DHT22;18152;49.986;8.646;2023-08-24T04:34:02;18.00;99.90
31542;DHT22;18152;49.986;8.646;2023-08-24T04:36:29;18.00;99.90
31542;DHT22;18152;49.986;8.646;2023-08-24T04:38:54;18.00;99.90
31542;DHT22;18152;49.986;8.646;2023-08-24T04:41:20;18.00;99.90
31542;DHT22;18152;49.986;8.646;2023-08-24T04:43:46;18.00;99.90
31542;DHT22;18152;49.986;8.646;2023-08-24T04:46:11;18.00;99.90
31542;DHT22;18152;49.986;8.646;2023-08-24T04:48:37;18.00;99.90
31542;DHT22;18152;49.986;8.646;2023-08-24T04:51:03;18.00;99.90
31542;DHT22;18152;49.986;8.646;2023-08-24T04:53:29;18.00;99.90
31542;DHT22;18152;49.986;8.646;2023-08-24T04:55:54;18.00;99.90
31542;DHT22;18152;49.986;8.646;2023-08-24T04:58:20;18.00;99.90
31542;DHT22;18152;49.986;8.646;2023-08-24T05:00:45;18.10;99.90
31542;DHT22;18152;49.986;8.646;2023-08-24T05:03:11;18.20;99.90
31542;DHT22;18152;49.986;8.646;2023-08-24T05:05:37;18.10;99.90
31542;DHT22;18152;49.986;8.646;2023-08-24T05:08:04;18.10;99.90
31542;DHT22;18152;49.986;8.646;2023-08-24T05:10:37;18.10;99.90
31542;DHT22;18152;49.986;8.646;2023-08-24T05:13:03;18.20;99.90
31542;DHT22;18152;49.986;8.646;2023-08-24T05:15:29;18.30;99.90
31542;DHT22;18152;49.986;8.646;2023-08-24T05:17:54;18.30;99.90
31542;DHT22;18152;49.986;8.646;2023-08-24T05:20:22;18.30;99.90
31542;DHT22;18152;49.986;8.646;2023-08-24T05:22:48;18.40;99.90
31542;DHT22;18152;49.986;8.646;2023-08-24T05:25:14;18.30;99.90
31542;DHT22;18152;49.986;8.646;2023-08-24T05:27:41;18.30;99.90
31542;DHT22;18152;49.986;8.646;2023-08-24T05:30:07;18.30;99.90
31542;DHT22;18152;49.986;8.646;2023-08-24T05:32:33;18.20;99.90
31542;DHT22;18152;49.986;8.646;2023-08-24T05:35:03;18.20;99.90
31542;DHT22;18152;49.986;8.646;2023-08-24T05:37:29;18.20;99.90
31542;DHT22;18152;49.986;8.646;2023-08-24T05:39:54;18.10;99.90
31542;DHT22;18152;49.986;8.646;2023-08-24T05:42:20;18.10;99.90
31542;DHT22;18152;49.986;8.646;2023-08-24T05:44:45;18.00;99.90
31542;DHT22;18152;49.986;8.646;2023-08-24T05:47:11;18.00;99.90
31542;DHT22;18152;49.986;8.646;2023-08-24T05:49:36;18.00;99.90
31542;DHT22;18152;49.986;8.646;2023-08-24T05:52:02;18.00;99.90
31542;DHT22;18152;49.986;8.646;2023-08-24T05:54:28;18.00;99.90
31542;DHT22;18152;49.986;8.646;2023-08-24T05:56:53;18.20;99.90
31542;DHT22;18152;49.986;8.646;2023-08-24T05:59:19;18.20;99.90
31542;DHT22;18152;49.986;8.646;2023-08-24T06:01:44;18.30;99.90
31542;DHT22;18152;49.986;8.646;2023-08-24T06:04:10;18.40;99.90
31542;DHT22;18152;49.986;8.646;2023-08-24T06:06:36;18.40;99.90
31542;DHT22;18152;49.986;8.646;2023-08-24T06:09:02;18.50;99.90
31542;DHT22;18152;49.986;8.646;2023-08-24T06:11:32;18.60;99.90
31542;DHT22;18152;49.986;8.646;2023-08-24T06:13:58;18.70;99.90
31542;DHT22;18152;49.986;8.646;2023-08-24T06:16:24;18.80;99.90
31542;DHT22;18152;49.986;8.646;2023-08-24T06:18:50;18.80;99.90
31542;DHT22;18152;49.986;8.646;2023-08-24T06:21:16;18.90;99.90
31542;DHT22;18152;49.986;8.646;2023-08-24T06:23:42;18.90;99.90
31542;DHT22;18152;49.986;8.646;2023-08-24T06:26:07;18.90;99.90
31542;DHT22;18152;49.986;8.646;2023-08-24T06:28:33;18.90;99.90
31542;DHT22;18152;49.986;8.646;2023-08-24T06:31:00;18.90;99.90
31542;DHT22;18152;49.986;8.646;2023-08-24T06:33:35;18.80;99.90
31542;DHT22;18152;49.986;8.646;2023-08-24T06:36:02;18.90;99.90
31542;DHT22;18152;49.986;8.646;2023-08-24T06:38:30;18.90;99.90
31542;DHT22;18152;49.986;8.646;2023-08-24T06:40:57;19.00;99.90
31542;DHT22;18152;49.986;8.646;2023-08-24T06:43:23;18.90;99.90
31542;DHT22;18152;49.986;8.646;2023-08-24T06:45:48;18.90;99.90
31542;DHT22;18152;49.986;8.646;2023-08-24T06:48:14;18.90;99.90
31542;DHT22;18152;49.986;8.646;2023-08-24T06:50:39;18.90;99.90
31542;DHT22;18152;49.986;8.646;2023-08-24T06:53:06;18.90;99.90
31542;DHT22;18152;49.986;8.646;2023-08-24T06:55:31;18.90;99.90
31542;DHT22;18152;49.986;8.646;2023-08-24T06:57:57;19.00;99.90
31542;DHT22;18152;49.986;8.646;2023-08-24T07:00:23;19.00;99.90
31542;DHT22;18152;49.986;8.646;2023-08-24T07:02:49;19.10;99.90
31542;DHT22;18152;49.986;8.646;2023-08-24T07:05:15;19.00;99.90
31542;DHT22;18152;49.986;8.646;2023-08-24T07:07:49;19.00;99.90
31542;DHT22;18152;49.986;8.646;2023-08-24T07:10:14;19.10;99.90
31542;DHT22;18152;49.986;8.646;2023-08-24T07:12:40;19.10;99.90
31542;DHT22;18152;49.986;8.646;2023-08-24T07:15:07;19.10;99.90
31542;DHT22;18152;49.986;8.646;2023-08-24T07:17:33;19.20;99.90
31542;DHT22;18152;49.986;8.646;2023-08-24T07:19:58;19.20;99.90
31542;DHT22;18152;49.986;8.646;2023-08-24T07:22:24;19.20;99.90
31542;DHT22;18152;49.986;8.646;2023-08-24T07:24:52;19.30;99.90
31542;DHT22;18152;49.986;8.646;2023-08-24T07:27:18;19.40;99.90
31542;DHT22;18152;49.986;8.646;2023-08-24T07:29:44;19.30;99.90
31542;DHT22;18152;49.986;8.646;2023-08-24T07:32:09;19.40;99.90
31542;DHT22;18152;49.986;8.646;2023-08-24T07:34:35;19.50;99.90
31542;DHT22;18152;49.986;8.646;2023-08-24T07:37:01;19.50;99.90
31542;DHT22;18152;49.986;8.646;2023-08-24T07:39:26;19.60;99.90
31542;DHT22;18152;49.986;8.646;2023-08-24T07:41:52;19.60;99.90
31542;DHT22;18152;49.986;8.646;2023-08-24T07:44:17;19.60;99.90
31542;DHT22;18152;49.986;8.646;2023-08-24T07:46:43;19.60;99.90
31542;DHT22;18152;49.986;8.646;2023-08-24T07:49:09;19.50;99.90
31542;DHT22;18152;49.986;8.646;2023-08-24T07:51:35;19.40;99.90
31542;DHT22;18152;49.986;8.646;2023-08-24T07:54:01;19.40;99.90
31542;DHT22;18152;49.986;8.646;2023-08-24T07:56:27;19.50;99.90
31542;DHT22;18152;49.986;8.646;2023-08-24T07:58:52;19.50;99.90
31542;DHT22;18152;49.986;8.646;2023-08-24T08:01:18;19.60;99.90
31542;DHT22;18152;49.986;8.646;2023-08-24T08:03:43;19.70;99.90
31542;DHT22;18152;49.986;8.646;2023-08-24T08:06:09;19.70;99.90
31542;DHT22;18152;49.986;8.646;2023-08-24T08:08:34;19.70;99.90
31542;DHT22;18152;49.986;8.646;2023-08-24T08:11:01;19.70;99.90
31542;DHT22;18152;49.986;8.646;2023-08-24T08:13:28;19.70;99.90
31542;DHT22;18152;49.986;8.646;2023-08-24T08:16:03;19.70;99.90
31542;DHT22;18152;49.986;8.646;2023-08-24T08:18:29;19.70;99.90
31542;DHT22;18152;49.986;8.646;2023-08-24T08:20:55;19.80;99.90
31542;DHT22;18152;49.986;8.646;2023-08-24T08:23:20;19.80;99.90
31542;DHT22;18152;49.986;8.646;2023-08-24T08:25:46;20.00;99.90
31542;DHT22;18152;49.986;8.646;2023-08-24T08:28:11;20.10;99.90
31542;DHT22;18152;49.986;8.646;2023-08-24T09:51:04;27.80;99.90
31542;DHT22;18152;49.986;8.646;2023-08-24T09:56:00;27.70;99.90
31542;DHT22;18152;49.986;8.646;2023-08-24T09:58:27;28.20;99.90
31542;DHT22;18152;49.986;8.646;2023-08-24T10:00:54;27.80;99.90
31542;DHT22;18152;49.986;8.646;2023-08-24T10:03:21;27.80;99.90
31542;DHT22;18152;49.986;8.646;2023-08-24T10:05:55;28.10;99.90
31542;DHT22;18152;49.986;8.646;2023-08-24T10:08:38;28.60;99.90
31542;DHT22;18152;49.986;8.646;2023-08-24T10:11:05;28.60;99.90
31542;DHT22;18152;49.986;8.646;2023-08-24T10:16:08;28.10;99.90
31542;DHT22;18152;49.986;8.646;2023-08-24T10:18:34;28.10;98.80
31542;DHT22;18152;49.986;8.646;2023-08-24T10:21:00;28.00;98.60
31542;DHT22;18152;49.986;8.646;2023-08-24T10:23:28;27.90;99.90
31542;DHT22;18152;49.986;8.646;2023-08-24T10:25:55;28.50;99.90
31542;DHT22;18152;49.986;8.646;2023-08-24T10:28:23;28.80;99.30
31542;DHT22;18152;49.986;8.646;2023-08-24T10:30:49;28.70;97.80
31542;DHT22;18152;49.986;8.646;2023-08-24T10:33:16;28.20;97.70
31542;DHT22;18152;49.986;8.646;2023-08-24T10:35:42;28.30;97.90
31542;DHT22;18152;49.986;8.646;2023-08-24T10:38:18;28.10;97.70
31542;DHT22;18152;49.986;8.646;2023-08-24T10:40:47;28.00;98.70
31542;DHT22;18152;49.986;8.646;2023-08-24T10:43:13;28.30;98.70
31542;DHT22;18152;49.986;8.646;2023-08-24T10:45:59;28.10;99.90
31542;DHT22;18152;49.986;8.646;2023-08-24T10:48:27;27.90;99.10
31542;DHT22;18152;49.986;8.646;2023-08-24T10:51:15;28.00;98.60
31542;DHT22;18152;49.986;8.646;2023-08-24T10:53:44;27.80;98.70
31542;DHT22;18152;49.986;8.646;2023-08-24T10:56:13;27.70;99.00
31542;DHT22;18152;49.986;8.646;2023-08-24T10:58:40;27.70;99.50
31542;DHT22;18152;49.986;8.646;2023-08-24T11:01:05;27.50;99.90
31542;DHT22;18152;49.986;8.646;2023-08-24T11:03:34;27.30;98.60
31542;DHT22;18152;49.986;8.646;2023-08-24T11:05:59;27.10;97.50
31542;DHT22;18152;49.986;8.646;2023-08-24T11:08:47;27.10;99.20
31542;DHT22;18152;49.986;8.646;2023-08-24T11:11:23;27.20;99.60
31542;DHT22;18152;49.986;8.646;2023-08-24T11:14:18;27.20;98.00
31542;DHT22;18152;49.986;8.646;2023-08-24T11:17:00;27.30;97.50
31542;DHT22;18152;49.986;8.646;2023-08-24T11:19:26;27.60;98.80
31542;DHT22;18152;49.986;8.646;2023-08-24T11:21:52;27.80;97.80
31542;DHT22;18152;49.986;8.646;2023-08-24T11:24:18;28.10;98.40
31542;DHT22;18152;49.986;8.646;2023-08-24T11:26:46;28.50;98.80
31542;DHT22;18152;49.986;8.646;2023-08-24T11:29:12;28.60;97.60
31542;DHT22;18152;49.986;8.646;2023-08-24T11:31:38;28.50;96.90
31542;DHT22;18152;49.986;8.646;2023-08-24T11:34:05;28.60;96.70
31542;DHT22;18152;49.986;8.646;2023-08-24T11:36:31;28.50;98.50
31542;DHT22;18152;49.986;8.646;2023-08-24T11:38:58;28.60;98.40
31542;DHT22;18152;49.986;8.646;2023-08-24T11:41:24;29.10;99.90
31542;DHT22;18152;49.986;8.646;2023-08-24T11:43:58;29.30;97.00
31542;DHT22;18152;49.986;8.646;2023-08-24T11:46:24;29.40;97.80
31542;DHT22;18152;49.986;8.646;2023-08-24T11:48:50;29.10;97.30
31542;DHT22;18152;49.986;8.646;2023-08-24T11:51:17;28.80;96.70
31542;DHT22;18152;49.986;8.646;2023-08-24T11:53:43;28.40;97.60
31542;DHT22;18152;49.986;8.646;2023-08-24T11:56:10;28.30;98.80
31542;DHT22;18152;49.986;8.646;2023-08-24T11:58:39;28.10;98.00
31542;DHT22;18152;49.986;8.646;2023-08-24T12:01:06;28.30;99.70
31542;DHT22;18152;49.986;8.646;2023-08-24T12:03:32;28.30;99.60
31542;DHT22;18152;49.986;8.646;2023-08-24T12:06:00;28.10;99.90
31542;DHT22;18152;49.986;8.646;2023-08-24T12:08:26;27.80;98.80
31542;DHT22;18152;49.986;8.646;2023-08-24T12:10:52;27.50;99.90
31542;DHT22;18152;49.986;8.646;2023-08-24T12:13:17;27.40;99.90
31542;DHT22;18152;49.986;8.646;2023-08-24T12:15:43;27.20;99.90
31542;DHT22;18152;49.986;8.646;2023-08-24T12:18:13;27.00;99.90
31542;DHT22;18152;49.986;8.646;2023-08-24T12:20:40;27.00;99.50
31542;DHT22;18152;49.986;8.646;2023-08-24T12:23:07;27.10;99.90
31542;DHT22;18152;49.986;8.646;2023-08-24T12:25:37;27.00;99.90
31542;DHT22;18152;49.986;8.646;2023-08-24T12:30:46;27.10;99.90
31542;DHT22;18152;49.986;8.646;2023-08-24T12:33:41;27.10;99.90
31542;DHT22;18152;49.986;8.646;2023-08-24T12:36:07;27.10;99.90
31542;DHT22;18152;49.986;8.646;2023-08-24T12:38:32;27.20;99.90
31542;DHT22;18152;49.986;8.646;2023-08-24T12:41:00;27.20;99.90
31542;DHT22;18152;49.986;8.646;2023-08-24T12:43:26;27.30;99.90
31542;DHT22;18152;49.986;8.646;2023-08-24T12:45:52;27.20;99.90
31542;DHT22;18152;49.986;8.646;2023-08-24T12:48:17;27.20;99.90
31542;DHT22;18152;49.986;8.646;2023-08-24T12:50:43;27.40;99.90
31542;DHT22;18152;49.986;8.646;2023-08-24T12:53:09;27.50;99.90
31542;DHT22;18152;49.986;8.646;2023-08-24T12:55:35;27.40;99.90
31542;DHT22;18152;49.986;8.646;2023-08-24T12:58:01;27.40;99.90
31542;DHT22;18152;49.986;8.646;2023-08-24T13:00:27;27.30;99.90
31542;DHT22;18152;49.986;8.646;2023-08-24T13:02:53;27.30;99.90
31542;DHT22;18152;49.986;8.646;2023-08-24T13:05:18;27.30;99.90
31542;DHT22;18152;49.986;8.646;2023-08-24T13:07:44;27.30;99.90
31542;DHT22;18152;49.986;8.646;2023-08-24T13:10:09;27.50;99.90
31542;DHT22;18152;49.986;8.646;2023-08-24T13:12:36;27.50;99.90
31542;DHT22;18152;49.986;8.646;2023-08-24T13:15:02;27.50;99.90
31542;DHT22;18152;49.986;8.646;2023-08-24T13:17:30;27.50;99.90
31542;DHT22;18152;49.986;8.646;2023-08-24T13:19:56;27.50;99.90
31542;DHT22;18152;49.986;8.646;2023-08-24T13:22:21;27.30;99.90
31542;DHT22;18152;49.986;8.646;2023-08-24T13:24:47;27.20;99.90
31542;DHT22;18152;49.986;8.646;2023-08-24T13:27:12;27.20;99.90
31542;DHT22;18152;49.986;8.646;2023-08-24T13:29:38;27.20;99.90
31542;DHT22;18152;49.986;8.646;2023-08-24T13:32:04;27.10;99.90
31542;DHT22;18152;49.986;8.646;2023-08-24T13:34:30;27.10;99.90
31542;DHT22;18152;49.986;8.646;2023-08-24T13:36:59;26.90;99.90
31542;DHT22;18152;49.986;8.646;2023-08-24T13:39:28;26.70;99.90
31542;DHT22;18152;49.986;8.646;2023-08-24T13:41:57;26.60;99.90
31542;DHT22;18152;49.986;8.646;2023-08-24T13:44:23;26.40;99.90
31542;DHT22;18152;49.986;8.646;2023-08-24T13:46:49;26.30;99.90
31542;DHT22;18152;49.986;8.646;2023-08-24T13:49:15;26.10;99.90
31542;DHT22;18152;49.986;8.646;2023-08-24T13:51:40;26.00;99.90
31542;DHT22;18152;49.986;8.646;2023-08-24T13:54:18;26.00;99.90
31542;DHT22;18152;49.986;8.646;2023-08-24T13:56:47;26.10;99.90
31542;DHT22;18152;49.986;8.646;2023-08-24T13:59:13;26.20;99.90
31542;DHT22;18152;49.986;8.646;2023-08-24T14:01:40;26.30;99.90
31542;DHT22;18152;49.986;8.646;2023-08-24T14:04:06;26.50;99.90
31542;DHT22;18152;49.986;8.646;2023-08-24T14:06:32;26.60;99.90
31542;DHT22;18152;49.986;8.646;2023-08-24T14:09:05;26.50;99.90
31542;DHT22;18152;49.986;8.646;2023-08-24T14:11:32;26.30;99.90
31542;DHT22;18152;49.986;8.646;2023-08-24T14:13:58;26.10;99.90
31542;DHT22;18152;49.986;8.646;2023-08-24T14:16:24;26.10;99.90
31542;DHT22;18152;49.986;8.646;2023-08-24T14:18:50;25.90;99.90
31542;DHT22;18152;49.986;8.646;2023-08-24T14:21:16;26.10;99.90
31542;DHT22;18152;49.986;8.646;2023-08-24T14:23:42;26.20;99.90
31542;DHT22;18152;49.986;8.646;2023-08-24T14:26:08;26.40;99.90
31542;DHT22;18152;49.986;8.646;2023-08-24T14:28:55;26.40;99.90
31542;DHT22;18152;49.986;8.646;2023-08-24T14:31:23;26.20;99.90
31542;DHT22;18152;49.986;8.646;2023-08-24T14:33:49;26.20;99.90
31542;DHT22;18152;49.986;8.646;2023-08-24T14:36:16;26.10;99.90
31542;DHT22;18152;49.986;8.646;2023-08-24T14:38:42;25.90;99.90
31542;DHT22;18152;49.986;8.646;2023-08-24T14:41:09;25.80;99.90
31542;DHT22;18152;49.986;8.646;2023-08-24T14:43:35;25.60;99.90
31542;DHT22;18152;49.986;8.646;2023-08-24T14:46:00;25.40;99.90
31542;DHT22;18152;49.986;8.646;2023-08-24T14:48:26;25.20;99.90
31542;DHT22;18152;49.986;8.646;2023-08-24T14:50:52;25.10;99.90
31542;DHT22;18152;49.986;8.646;2023-08-24T14:53:17;25.10;99.90
31542;DHT22;18152;49.986;8.646;2023-08-24T14:55:43;25.10;99.90
31542;DHT22;18152;49.986;8.646;2023-08-24T14:58:08;24.90;99.90
31542;DHT22;18152;49.986;8.646;2023-08-24T15:00:34;24.70;99.90
31542;DHT22;18152;49.986;8.646;2023-08-24T15:03:00;24.50;99.90
31542;DHT22;18152;49.986;8.646;2023-08-24T15:05:26;24.50;99.90
31542;DHT22;18152;49.986;8.646;2023-08-24T15:07:51;24.40;99.90
31542;DHT22;18152;49.986;8.646;2023-08-24T15:10:18;24.70;99.90
31542;DHT22;18152;49.986;8.646;2023-08-24T15:12:45;24.90;99.90
31542;DHT22;18152;49.986;8.646;2023-08-24T15:15:10;24.80;99.90
31542;DHT22;18152;49.986;8.646;2023-08-24T15:17:37;24.90;99.90
31542;DHT22;18152;49.986;8.646;2023-08-24T15:20:03;24.90;99.90
31542;DHT22;18152;49.986;8.646;2023-08-24T15:22:33;24.80;99.90
31542;DHT22;18152;49.986;8.646;2023-08-24T15:24:59;24.70;99.90
31542;DHT22;18152;49.986;8.646;2023-08-24T15:27:25;24.60;99.90
31542;DHT22;18152;49.986;8.646;2023-08-24T15:29:50;24.60;99.90
31542;DHT22;18152;49.986;8.646;2023-08-24T15:32:19;24.40;99.90
31542;DHT22;18152;49.986;8.646;2023-08-24T15:34:45;24.40;99.90
31542;DHT22;18152;49.986;8.646;2023-08-24T15:37:11;24.40;99.90
31542;DHT22;18152;49.986;8.646;2023-08-24T15:39:38;24.30;99.90
31542;DHT22;18152;49.986;8.646;2023-08-24T15:42:05;24.20;99.90
31542;DHT22;18152;49.986;8.646;2023-08-24T15:44:30;24.20;99.90
31542;DHT22;18152;49.986;8.646;2023-08-24T15:46:56;24.30;99.90
31542;DHT22;18152;49.986;8.646;2023-08-24T15:49:22;24.40;99.90
31542;DHT22;18152;49.986;8.646;2023-08-24T15:51:49;24.40;99.90
31542;DHT22;18152;49.986;8.646;2023-08-24T15:54:14;24.30;99.90
31542;DHT22;18152;49.986;8.646;2023-08-24T15:56:40;24.30;99.90
31542;DHT22;18152;49.986;8.646;2023-08-24T15:59:12;24.30;99.90
31542;DHT22;18152;49.986;8.646;2023-08-24T16:01:38;24.30;99.90
31542;DHT22;18152;49.986;8.646;2023-08-24T16:04:04;24.30;99.90
31542;DHT22;18152;49.986;8.646;2023-08-24T16:06:31;24.10;99.90
31542;DHT22;18152;49.986;8.646;2023-08-24T16:08:56;24.10;99.90
31542;DHT22;18152;49.986;8.646;2023-08-24T16:11:22;23.90;99.90
31542;DHT22;18152;49.986;8.646;2023-08-24T16:13:48;23.80;99.90
31542;DHT22;18152;49.986;8.646;2023-08-24T16:16:13;23.80;99.90
31542;DHT22;18152;49.986;8.646;2023-08-24T16:18:39;23.70;99.90
31542;DHT22;18152;49.986;8.646;2023-08-24T16:21:05;23.60;99.90
31542;DHT22;18152;49.986;8.646;2023-08-24T16:23:30;23.60;99.90
31542;DHT22;18152;49.986;8.646;2023-08-24T16:25:56;23.50;99.90
31542;DHT22;18152;49.986;8.646;2023-08-24T16:28:23;23.60;99.90
31542;DHT22;18152;49.986;8.646;2023-08-24T16:30:48;23.70;99.90
31542;DHT22;18152;49.986;8.646;2023-08-24T16:33:16;23.70;99.90
31542;DHT22;18152;49.986;8.646;2023-08-24T16:35:43;23.60;99.90
31542;DHT22;18152;49.986;8.646;2023-08-24T16:38:09;23.60;99.90
31542;DHT22;18152;49.986;8.646;2023-08-24T16:40:35;23.60;99.90
31542;DHT22;18152;49.986;8.646;2023-08-24T16:43:01;23.70;99.90
31542;DHT22;18152;49.986;8.646;2023-08-24T16:45:27;23.70;99.90
31542;DHT22;18152;49.986;8.646;2023-08-24T16:47:53;23.50;99.90
31542;DHT22;18152;49.986;8.646;2023-08-24T16:50:19;23.40;99.90
31542;DHT22;18152;49.986;8.646;2023-08-24T16:52:45;23.40;99.90
31542;DHT22;18152;49.986;8.646;2023-08-24T16:55:11;23.40;99.90
31542;DHT22;18152;49.986;8.646;2023-08-24T16:57:36;23.40;99.90
31542;DHT22;18152;49.986;8.646;2023-08-24T17:00:03;23.40;99.90